createdAt,value
2022-08-23T00:01:47.963Z,100075.22
2022-08-23T00:04:21.099Z,100075.88
2022-08-23T00:06:50.819Z,100078.94
2022-08-23T00:09:21.067Z,100075.66
2022-08-23T00:12:12.047Z,100076.28
2022-08-23T00:14:46.482Z,100071.16
2022-08-23T00:17:33.211Z,100068.69
2022-08-23T00:20:04.782Z,100065.00
2022-08-23T00:22:33.029Z,100072.78
2022-08-23T00:25:01.614Z,100077.91
2022-08-23T00:27:30.020Z,100064.00
2022-08-23T00:29:58.577Z,100059.94
2022-08-23T00:32:34.748Z,100067.88
2022-08-23T00:35:04.904Z,100058.69
2022-08-23T00:37:34.092Z,100064.00
2022-08-23T00:40:04.252Z,100057.47
2022-08-23T00:43:17.920Z,100055.81
2022-08-23T00:46:35.562Z,100059.06
2022-08-23T00:49:11.087Z,100061.53
2022-08-23T00:51:53.256Z,100065.84
2022-08-23T00:54:27.226Z,100060.50
2022-08-23T00:57:01.327Z,100052.34
2022-08-23T00:59:30.005Z,100057.66
2022-08-23T01:01:59.763Z,100057.66
2022-08-23T01:04:37.328Z,100050.28
2022-08-23T01:07:15.596Z,100056.03
2022-08-23T01:09:44.863Z,100062.16
2022-08-23T01:12:32.198Z,100059.28
2022-08-23T01:15:06.877Z,100061.34
2022-08-23T01:17:54.883Z,100063.38
2022-08-23T01:20:27.049Z,100060.13
2022-08-23T01:23:18.692Z,100064.59
2022-08-23T01:25:47.224Z,100066.47
2022-08-23T01:28:15.594Z,100069.31
2022-08-23T01:30:46.382Z,100070.94
2022-08-23T01:33:14.979Z,100070.53
2022-08-23T01:35:50.891Z,100072.78
2022-08-23T01:38:20.013Z,100080.97
2022-08-23T01:40:48.776Z,100076.03
2022-08-23T01:43:21.501Z,100073.97
2022-08-23T01:45:52.760Z,100069.66
2022-08-23T01:48:23.727Z,100073.34
2022-08-23T01:50:52.664Z,100070.69
2022-08-23T01:53:20.870Z,100068.22
2022-08-23T01:55:51.565Z,100071.09
2022-08-23T01:58:22.745Z,100065.78
2022-08-23T02:00:54.402Z,100073.97
2022-08-23T02:03:22.693Z,100073.16
2022-08-23T02:08:40.380Z,100079.53
2022-08-23T02:11:15.275Z,100080.75
2022-08-23T02:13:44.713Z,100077.06
2022-08-23T02:16:21.053Z,100076.47
2022-08-23T02:18:49.267Z,100078.09
2022-08-23T02:21:17.784Z,100080.13
2022-08-23T02:23:47.089Z,100085.88
2022-08-23T02:26:15.603Z,100084.44
2022-08-23T02:28:50.138Z,100086.25
2022-08-23T02:31:18.879Z,100083.81
2022-08-23T02:33:51.239Z,100087.31
2022-08-23T02:38:55.340Z,100094.22
2022-08-23T02:41:24.427Z,100092.63
2022-08-23T02:43:56.639Z,100090.16
2022-08-23T02:46:25.422Z,100095.88
2022-08-23T02:48:55.258Z,100095.25
2022-08-23T02:51:23.844Z,100106.47
2022-08-23T02:53:52.813Z,100105.88
2022-08-23T02:56:23.544Z,100099.94
2022-08-23T02:58:54.311Z,100100.75
2022-08-23T03:01:30.247Z,100094.19
2022-08-23T03:04:10.222Z,100091.38
2022-08-23T03:06:38.976Z,100088.28
2022-08-23T03:09:08.284Z,100096.06
2022-08-23T03:11:36.931Z,100101.16
2022-08-23T03:14:05.262Z,100101.16
2022-08-23T03:16:34.483Z,100099.09
2022-08-23T03:19:03.450Z,100104.19
2022-08-23T03:21:32.559Z,100097.22
2022-08-23T03:24:01.380Z,100104.16
2022-08-23T03:26:36.008Z,100090.84
2022-08-23T03:29:04.696Z,100101.09
2022-08-23T03:31:39.792Z,100106.19
2022-08-23T03:34:12.963Z,100104.13
2022-08-23T03:36:41.168Z,100102.09
2022-08-23T03:39:10.223Z,100107.41
2022-08-23T03:41:39.180Z,100107.00
2022-08-23T03:44:08.844Z,100109.25
2022-08-23T03:46:42.272Z,100111.91
2022-08-23T03:49:11.287Z,100118.13
2022-08-23T03:51:53.585Z,100116.91
2022-08-23T03:54:22.729Z,100117.69
2022-08-23T03:57:00.973Z,100116.03
2022-08-23T03:59:35.225Z,100123.00
2022-08-23T04:02:06.004Z,100125.28
2022-08-23T04:04:34.786Z,100130.97
2022-08-23T04:07:23.328Z,100129.13
2022-08-23T04:09:56.116Z,100131.38
2022-08-23T04:12:26.984Z,100135.66
2022-08-23T04:14:55.522Z,100136.25
2022-08-23T04:17:25.068Z,100135.69
2022-08-23T04:19:54.872Z,100135.06
2022-08-23T04:22:23.172Z,100142.91
2022-08-23T04:24:51.795Z,100146.53
2022-08-23T04:27:20.033Z,100142.81
2022-08-23T04:29:50.382Z,100150.53
2022-08-23T04:32:28.186Z,100154.22
2022-08-23T04:34:58.538Z,100158.47
2022-08-23T04:37:28.144Z,100155.44
2022-08-23T04:40:15.622Z,100158.28
2022-08-23T04:42:44.367Z,100158.69
2022-08-23T04:45:14.246Z,100155.44
2022-08-23T04:47:46.510Z,100159.09
2022-08-23T04:50:14.776Z,100158.09
2022-08-23T04:53:02.225Z,100157.25
2022-08-23T04:55:36.436Z,100158.72
2022-08-23T04:58:08.545Z,100166.66
2022-08-23T05:00:51.388Z,100170.75
2022-08-23T05:03:24.291Z,100170.00
2022-08-23T05:05:54.300Z,100175.13
2022-08-23T05:08:28.445Z,100177.00
2022-08-23T05:10:59.919Z,100183.19
2022-08-23T05:13:28.462Z,100182.59
2022-08-23T05:15:57.344Z,100182.81
2022-08-23T05:18:33.473Z,100192.03
2022-08-23T05:21:02.326Z,100197.97
2022-08-23T05:23:31.857Z,100195.13
2022-08-23T05:26:09.901Z,100198.19
2022-08-23T05:28:44.960Z,100199.44
2022-08-23T05:31:24.789Z,100195.41
2022-08-23T05:34:02.464Z,100199.28
2022-08-23T05:36:38.641Z,100204.00
2022-08-23T05:39:17.516Z,100205.31
2022-08-23T05:42:12.522Z,100213.69
2022-08-23T05:44:40.969Z,100209.81
2022-08-23T05:47:12.899Z,100209.81
2022-08-23T05:50:12.524Z,100210.44
2022-08-23T05:52:41.517Z,100212.44
2022-08-23T05:55:10.529Z,100217.88
2022-08-23T05:57:41.893Z,100216.84
2022-08-23T06:00:14.784Z,100217.41
2022-08-23T06:02:51.380Z,100223.19
2022-08-23T06:05:21.577Z,100224.34
2022-08-23T06:07:51.919Z,100220.84
2022-08-23T06:10:22.903Z,100220.38
2022-08-23T06:13:04.330Z,100226.19
2022-08-23T06:15:32.832Z,100231.16
2022-08-23T06:18:01.256Z,100231.41
2022-08-23T06:20:30.539Z,100233.13
2022-08-23T06:23:07.663Z,100230.88
2022-08-23T06:25:40.230Z,100231.56
2022-08-23T06:28:18.898Z,100228.81
2022-08-23T06:30:57.284Z,100229.69
2022-08-23T06:33:35.284Z,100224.53
2022-08-23T06:36:25.883Z,100229.28
2022-08-23T06:39:16.569Z,100227.44
2022-08-23T06:42:38.458Z,100236.63
2022-08-23T06:45:06.314Z,100230.28
2022-08-23T06:47:48.407Z,100229.06
2022-08-23T06:50:16.720Z,100233.56
2022-08-23T06:53:10.082Z,100232.81
2022-08-23T06:56:10.922Z,100239.16
2022-08-23T06:58:53.567Z,100245.09
2022-08-23T07:02:04.092Z,100250.63
2022-08-23T07:04:54.071Z,100239.19
2022-08-23T07:07:44.215Z,100244.66
2022-08-23T07:10:15.660Z,100244.78
2022-08-23T07:12:45.102Z,100256.56
2022-08-23T07:15:14.529Z,100263.38
2022-08-23T07:17:47.354Z,100252.13
2022-08-23T07:20:15.696Z,100257.84
2022-08-23T07:22:45.939Z,100258.16
2022-08-23T07:25:14.848Z,100251.09
2022-08-23T07:27:48.311Z,100259.50
2022-08-23T07:30:17.695Z,100261.97
2022-08-23T07:32:46.552Z,100268.16
2022-08-23T07:35:25.537Z,100264.69
2022-08-23T07:37:59.590Z,100267.81
2022-08-23T07:40:38.790Z,100271.03
2022-08-23T07:43:09.244Z,100268.56
2022-08-23T07:45:42.573Z,100269.41
2022-08-23T07:48:14.300Z,100275.16
2022-08-23T07:51:13.717Z,100276.00
2022-08-23T07:53:45.911Z,100267.38
2022-08-23T07:56:17.741Z,100278.97
2022-08-23T07:59:06.022Z,100269.19
2022-08-23T08:01:37.654Z,100274.13
2022-08-23T08:04:09.052Z,100272.59
2022-08-23T08:06:46.280Z,100274.47
2022-08-23T08:09:16.786Z,100274.00
2022-08-23T08:11:52.328Z,100279.41
2022-08-23T08:14:25.634Z,100285.25
2022-08-23T08:17:00.694Z,100295.53
2022-08-23T08:19:48.975Z,100293.50
2022-08-23T08:22:42.375Z,100289.28
2022-08-23T08:25:18.510Z,100291.69
2022-08-23T08:27:50.140Z,100297.19
2022-08-23T08:30:18.392Z,100298.31
2022-08-23T08:32:47.624Z,100297.72
2022-08-23T08:35:16.833Z,100299.66
2022-08-23T08:37:45.216Z,100305.78
2022-08-23T08:40:17.844Z,100314.38
2022-08-23T08:43:10.785Z,100313.84
2022-08-23T08:46:05.311Z,100317.34
2022-08-23T08:48:44.753Z,100312.44
2022-08-23T08:51:56.655Z,100323.50
2022-08-23T08:54:29.187Z,100323.00
2022-08-23T08:57:01.656Z,100326.41
2022-08-23T08:59:51.392Z,100318.13
2022-08-23T09:02:31.725Z,100323.03
2022-08-23T09:05:05.898Z,100330.06
2022-08-23T09:07:59.333Z,100333.84
2022-08-23T09:10:48.465Z,100318.41
2022-08-23T09:14:08.373Z,100320.56
2022-08-23T09:16:52.995Z,100323.00
2022-08-23T09:19:25.036Z,100328.44
2022-08-23T09:22:02.008Z,100322.47
2022-08-23T09:24:32.227Z,100324.09
2022-08-23T09:27:16.042Z,100326.00
2022-08-23T09:29:56.273Z,100323.28
2022-08-23T09:32:37.926Z,100329.78
2022-08-23T09:35:18.949Z,100331.91
2022-08-23T09:38:15.588Z,100330.06
2022-08-23T09:40:52.666Z,100336.00
2022-08-23T09:43:31.179Z,100337.88
2022-08-23T09:46:02.371Z,100333.00
2022-08-23T09:48:40.746Z,100333.00
2022-08-23T09:51:36.048Z,100336.84
2022-08-23T09:54:29.055Z,100341.91
2022-08-23T09:57:04.908Z,100340.50
2022-08-23T09:59:44.174Z,100339.50
2022-08-23T10:02:27.253Z,100332.75
2022-08-23T10:05:37.164Z,100333.81
2022-08-23T10:08:10.645Z,100333.00
2022-08-23T10:10:51.773Z,100330.00
2022-08-23T10:13:27.583Z,100331.16
2022-08-23T10:16:04.610Z,100330.06
2022-08-23T10:18:53.590Z,100334.63
2022-08-23T10:21:57.416Z,100345.97
2022-08-23T10:24:47.387Z,100337.34
2022-08-23T10:27:53.403Z,100335.47
2022-08-23T10:30:38.785Z,100335.75
2022-08-23T10:33:37.959Z,100344.63
2022-08-23T10:36:38.410Z,100344.09
2022-08-23T10:39:23.897Z,100343.03
2022-08-23T10:42:10.623Z,100334.66
2022-08-23T10:44:58.848Z,100337.34
2022-08-23T10:47:46.037Z,100332.75
2022-08-23T10:50:20.849Z,100337.38
2022-08-23T10:53:01.204Z,100348.97
2022-08-23T10:55:55.044Z,100345.47
2022-08-23T10:58:27.825Z,100341.13
2022-08-23T11:01:00.808Z,100336.28
2022-08-23T11:03:43.442Z,100335.72
2022-08-23T11:06:36.731Z,100335.75
2022-08-23T11:09:21.087Z,100334.66
2022-08-23T11:12:11.044Z,100330.03
2022-08-23T11:15:04.798Z,100328.66
2022-08-23T11:17:53.937Z,100327.28
2022-08-23T11:20:50.230Z,100327.28
2022-08-23T11:23:44.479Z,100327.28
2022-08-23T11:26:40.178Z,100325.88
2022-08-23T11:29:24.940Z,100327.78
2022-08-23T11:32:39.814Z,100322.66
2022-08-23T11:35:29.389Z,100336.94
2022-08-23T11:38:04.848Z,100334.75
2022-08-23T11:41:00.007Z,100339.59
2022-08-23T11:43:38.358Z,100331.94
2022-08-23T11:46:17.113Z,100332.84
2022-08-23T11:48:58.300Z,100329.50
2022-08-23T11:51:32.551Z,100336.47
2022-08-23T11:54:29.452Z,100338.41
2022-08-23T11:57:35.629Z,100332.16
2022-08-23T12:00:27.758Z,100327.03
2022-08-23T12:03:22.052Z,100323.16
2022-08-23T12:05:53.954Z,100339.13
2022-08-23T12:08:28.315Z,100331.09
2022-08-23T12:11:03.617Z,100330.78
2022-08-23T12:13:48.937Z,100330.56
2022-08-23T12:16:17.800Z,100334.72
2022-08-23T12:18:54.046Z,100328.66
2022-08-23T12:21:26.863Z,100330.53
2022-08-23T12:23:56.889Z,100329.69
2022-08-23T12:26:38.480Z,100339.88
2022-08-23T12:29:12.444Z,100336.63
2022-08-23T12:31:53.198Z,100338.88
2022-08-23T12:34:39.464Z,100336.69
2022-08-23T12:37:20.679Z,100344.16
2022-08-23T12:39:55.863Z,100336.69
2022-08-23T12:42:34.504Z,100337.78
2022-08-23T12:45:20.309Z,100322.38
2022-08-23T12:48:00.504Z,100328.06
2022-08-23T12:50:33.648Z,100332.41
2022-08-23T12:53:06.826Z,100332.53
2022-08-23T12:55:39.591Z,100320.31
2022-08-23T12:58:09.540Z,100326.53
2022-08-23T13:00:43.397Z,100320.03
2022-08-23T13:03:14.617Z,100321.63
2022-08-23T13:05:47.684Z,100316.97
2022-08-23T13:08:22.810Z,100318.41
2022-08-23T13:11:08.164Z,100316.63
2022-08-23T13:13:40.033Z,100312.09
2022-08-23T13:16:29.013Z,100313.94
2022-08-23T13:19:25.758Z,100319.88
2022-08-23T13:22:19.317Z,100318.41
2022-08-23T13:25:29.265Z,100315.38
2022-08-23T13:28:07.806Z,100325.72
2022-08-23T13:30:38.463Z,100310.69
2022-08-23T13:33:10.698Z,100309.19
2022-08-23T13:35:44.470Z,100308.22
2022-08-23T13:38:24.862Z,100308.00
2022-08-23T13:41:07.404Z,100302.88
2022-08-23T13:43:46.195Z,100304.78
2022-08-23T13:46:27.241Z,100304.38
2022-08-23T13:49:10.678Z,100288.84
2022-08-23T13:51:41.959Z,100292.00
2022-08-23T13:54:15.605Z,100286.50
2022-08-23T13:56:49.679Z,100295.00
2022-08-23T13:59:31.168Z,100282.44
2022-08-23T14:02:01.904Z,100290.50
2022-08-23T14:04:30.065Z,100289.25
2022-08-23T14:07:00.095Z,100285.22
2022-08-23T14:09:28.410Z,100292.41
2022-08-23T14:11:59.553Z,100286.44
2022-08-23T14:14:33.130Z,100280.25
2022-08-23T14:17:03.028Z,100278.09
2022-08-23T14:22:22.632Z,100283.91
2022-08-23T14:24:50.792Z,100280.47
2022-08-23T14:27:19.038Z,100273.97
2022-08-23T14:29:47.228Z,100276.72
2022-08-23T14:32:15.394Z,100278.41
2022-08-23T14:34:43.642Z,100273.59
2022-08-23T14:40:00.025Z,100289.38
2022-08-23T14:42:28.280Z,100282.28
2022-08-23T14:44:56.456Z,100281.34
2022-08-23T14:47:24.690Z,100277.16
2022-08-23T14:49:54.298Z,100281.25
2022-08-23T14:52:23.124Z,100279.09
2022-08-23T14:54:51.351Z,100276.72
2022-08-23T14:57:19.801Z,100272.16
2022-08-23T14:59:47.916Z,100271.53
2022-08-23T15:02:25.760Z,100279.31
2022-08-23T15:04:55.773Z,100279.03
2022-08-23T15:07:24.155Z,100276.03
2022-08-23T15:09:56.273Z,100274.69
2022-08-23T15:15:17.091Z,100274.75
2022-08-23T15:17:52.608Z,100269.06
2022-08-23T15:20:27.070Z,100266.31
2022-08-23T15:22:56.108Z,100264.97
2022-08-23T15:25:26.557Z,100272.84
2022-08-23T15:27:55.629Z,100259.09
2022-08-23T15:30:24.492Z,100267.75
2022-08-23T15:32:56.749Z,100261.81
2022-08-23T15:35:26.539Z,100265.56
2022-08-23T15:37:56.627Z,100260.44
2022-08-23T15:40:25.586Z,100262.47
2022-08-23T15:42:54.319Z,100256.72
2022-08-23T15:45:22.752Z,100253.69
2022-08-23T15:47:55.036Z,100255.88
2022-08-23T15:50:31.108Z,100249.19
2022-08-23T15:53:00.181Z,100248.38
2022-08-23T15:55:33.117Z,100250.28
2022-08-23T15:58:01.628Z,100256.47
2022-08-23T16:00:29.822Z,100255.38
2022-08-23T16:03:18.870Z,100259.38
2022-08-23T16:05:48.412Z,100256.06
2022-08-23T16:08:24.777Z,100242.03
2022-08-23T16:10:54.249Z,100248.47
2022-08-23T16:13:23.144Z,100246.31
2022-08-23T16:15:52.298Z,100247.13
2022-08-23T16:18:23.268Z,100248.94
2022-08-23T16:20:54.138Z,100251.47
2022-08-23T16:23:23.243Z,100250.34
2022-08-23T16:25:51.647Z,100251.63
2022-08-23T16:28:19.939Z,100259.44
2022-08-23T16:30:48.215Z,100257.81
2022-08-23T16:33:16.456Z,100255.84
2022-08-23T16:35:44.683Z,100262.56
2022-08-23T16:38:12.918Z,100260.19
2022-08-23T16:40:42.109Z,100262.56
2022-08-23T16:43:10.384Z,100262.22
2022-08-23T16:45:38.576Z,100265.13
2022-08-23T16:48:06.853Z,100259.75
2022-08-23T16:50:35.117Z,100268.63
2022-08-23T16:53:07.259Z,100273.97
2022-08-23T16:55:37.291Z,100270.44
2022-08-23T16:58:07.850Z,100279.06
2022-08-23T17:00:36.994Z,100278.88
2022-08-23T17:03:06.487Z,100275.34
2022-08-23T17:05:34.923Z,100274.50
2022-08-23T17:08:03.644Z,100280.91
2022-08-23T17:10:33.738Z,100285.69
2022-08-23T17:13:02.415Z,100286.47
2022-08-23T17:15:34.529Z,100288.38
2022-08-23T17:18:02.979Z,100294.28
2022-08-23T17:20:34.555Z,100295.25
2022-08-23T17:23:05.592Z,100297.91
2022-08-23T17:25:35.373Z,100291.03
2022-08-23T17:28:05.729Z,100299.59
2022-08-23T17:30:34.406Z,100299.31
2022-08-23T17:33:02.881Z,100301.91
2022-08-23T17:35:33.703Z,100306.44
2022-08-23T17:38:04.598Z,100314.66
2022-08-23T17:40:39.435Z,100317.50
2022-08-23T17:43:12.738Z,100314.25
2022-08-23T17:45:47.057Z,100316.97
2022-08-23T17:48:16.972Z,100320.59
2022-08-23T17:50:46.251Z,100328.09
2022-08-23T17:53:16.196Z,100335.84
2022-08-23T17:55:44.403Z,100338.72
2022-08-23T17:58:14.267Z,100334.59
2022-08-23T18:00:42.966Z,100336.13
2022-08-23T18:03:11.220Z,100335.56
2022-08-23T18:05:41.161Z,100346.16
2022-08-23T18:08:10.098Z,100352.63
2022-08-23T18:10:38.638Z,100357.84
2022-08-23T18:13:06.971Z,100346.91
2022-08-23T18:15:35.279Z,100355.44
2022-08-23T18:18:03.751Z,100363.19
2022-08-23T18:20:33.265Z,100370.69
2022-08-23T18:23:01.765Z,100369.09
2022-08-23T18:25:30.423Z,100384.47
2022-08-23T18:28:08.286Z,100385.63
2022-08-23T18:30:41.464Z,100382.34
2022-08-23T18:33:12.521Z,100392.28
2022-08-23T18:35:41.978Z,100393.44
2022-08-23T18:38:12.695Z,100395.75
2022-08-23T18:40:47.433Z,100399.81
2022-08-23T18:43:22.751Z,100403.66
2022-08-23T18:45:54.320Z,100406.06
2022-08-23T18:48:24.372Z,100406.19
2022-08-23T18:50:53.109Z,100412.09
2022-08-23T18:53:22.071Z,100421.47
2022-08-23T18:55:50.475Z,100432.16
2022-08-23T18:58:21.026Z,100438.19
2022-08-23T19:00:52.713Z,100448.97
2022-08-23T19:03:21.178Z,100442.22
2022-08-23T19:05:49.446Z,100449.13
2022-08-23T19:08:18.510Z,100452.69
2022-08-23T19:10:47.470Z,100461.56
2022-08-23T19:13:15.670Z,100458.44
2022-08-23T19:15:44.766Z,100463.78
2022-08-23T19:18:14.576Z,100462.81
2022-08-23T19:20:43.449Z,100465.28
2022-08-23T19:23:11.943Z,100465.69
2022-08-23T19:25:43.094Z,100477.66
2022-08-23T19:28:11.832Z,100476.25
2022-08-23T19:30:43.764Z,100486.16
2022-08-23T19:33:12.223Z,100489.47
2022-08-23T19:35:40.695Z,100488.97
2022-08-23T19:38:09.162Z,100494.72
2022-08-23T19:40:37.407Z,100500.88
2022-08-23T19:43:05.637Z,100502.53
2022-08-23T19:45:34.549Z,100507.50
2022-08-23T19:48:03.499Z,100509.38
2022-08-23T19:50:32.547Z,100506.69
2022-08-23T19:53:01.126Z,100513.53
2022-08-23T19:55:32.572Z,100523.22
2022-08-23T19:58:00.801Z,100528.59
2022-08-23T20:00:31.299Z,100533.38
2022-08-23T20:03:02.391Z,100530.19
2022-08-23T20:05:34.243Z,100534.72
2022-08-23T20:08:03.145Z,100539.47
2022-08-23T20:10:31.421Z,100542.94
2022-08-23T20:13:01.014Z,100541.91
2022-08-23T20:15:29.764Z,100546.28
2022-08-23T20:17:58.763Z,100554.13
2022-08-23T20:20:26.924Z,100552.69
2022-08-23T20:23:13.626Z,100551.97
2022-08-23T20:25:43.449Z,100561.88
2022-08-23T20:28:11.774Z,100562.09
2022-08-23T20:30:40.204Z,100558.41
2022-08-23T20:33:08.432Z,100566.88
2022-08-23T20:35:36.584Z,100570.75
2022-08-23T20:38:04.837Z,100572.00
2022-08-23T20:40:33.113Z,100573.66
2022-08-23T20:43:01.630Z,100577.00
2022-08-23T20:45:30.161Z,100573.72
2022-08-23T20:47:58.477Z,100576.19
2022-08-23T20:50:26.657Z,100585.47
2022-08-23T20:52:55.951Z,100579.94
2022-08-23T20:55:24.680Z,100587.34
2022-08-23T20:57:52.841Z,100592.50
2022-08-23T21:00:21.243Z,100594.75
2022-08-23T21:02:49.353Z,100589.25
2022-08-23T21:05:17.628Z,100595.00
2022-08-23T21:07:46.221Z,100592.16
2022-08-23T21:10:15.176Z,100602.88
2022-08-23T21:12:43.344Z,100599.97
2022-08-23T21:15:11.746Z,100601.88
2022-08-23T21:17:42.874Z,100592.00
2022-08-23T21:20:15.199Z,100591.38
2022-08-23T21:22:43.436Z,100596.31
2022-08-23T21:25:11.826Z,100598.78
2022-08-23T21:27:40.051Z,100595.72
2022-08-23T21:30:09.528Z,100599.63
2022-08-23T21:32:37.786Z,100600.22
2022-08-23T21:35:06.333Z,100605.56
2022-08-23T21:37:35.586Z,100605.34
2022-08-23T21:40:04.501Z,100604.97
2022-08-23T21:42:32.737Z,100604.78
2022-08-23T21:45:00.984Z,100604.38
2022-08-23T21:47:31.356Z,100604.53
2022-08-23T21:49:59.510Z,100606.19
2022-08-23T21:52:27.689Z,100604.97
2022-08-23T21:54:55.940Z,100609.69
2022-08-23T21:57:24.153Z,100608.84
2022-08-23T21:59:53.203Z,100612.56
2022-08-23T22:02:21.508Z,100615.44
2022-08-23T22:04:50.341Z,100606.22
2022-08-23T22:07:18.586Z,100618.09
2022-08-23T22:09:47.279Z,100613.19
2022-08-23T22:12:23.174Z,100615.44
2022-08-23T22:14:53.440Z,100616.06
2022-08-23T22:17:21.588Z,100616.88
2022-08-23T22:19:52.233Z,100614.59
2022-08-23T22:22:24.959Z,100620.34
2022-08-23T22:24:54.227Z,100615.63
2022-08-23T22:27:22.344Z,100617.91
2022-08-23T22:29:50.670Z,100624.03
2022-08-23T22:32:19.380Z,100617.63
2022-08-23T22:34:47.629Z,100615.56
2022-08-23T22:37:16.505Z,100618.22
2022-08-23T22:39:45.992Z,100618.00
2022-08-23T22:42:16.327Z,100621.09
2022-08-23T22:44:44.497Z,100615.56
2022-08-23T22:47:12.763Z,100621.88
2022-08-23T22:49:41.015Z,100622.47
2022-08-23T22:52:09.170Z,100618.59
2022-08-23T22:54:37.312Z,100618.38
2022-08-23T22:57:05.630Z,100623.91
2022-08-23T22:59:33.855Z,100624.06
2022-08-23T23:02:03.304Z,100620.81
2022-08-23T23:04:32.941Z,100616.50
2022-08-23T23:07:02.004Z,100613.19
2022-08-23T23:09:30.293Z,100619.75
2022-08-23T23:11:58.518Z,100615.63
2022-08-23T23:14:28.841Z,100611.75
2022-08-23T23:16:57.090Z,100605.81
2022-08-23T23:19:45.773Z,100613.59
2022-08-23T23:22:16.126Z,100614.16
2022-08-23T23:24:44.368Z,100605.94
2022-08-23T23:27:12.803Z,100603.63
2022-08-23T23:29:43.998Z,100615.72
2022-08-23T23:32:12.157Z,100612.81
2022-08-23T23:34:40.357Z,100610.38
2022-08-23T23:37:11.090Z,100601.59
2022-08-23T23:39:39.729Z,100610.59
2022-08-23T23:42:07.995Z,100608.94
2022-08-23T23:44:36.129Z,100604.22
2022-08-23T23:47:06.849Z,100598.03
2022-08-23T23:49:35.003Z,100606.59
2022-08-23T23:52:05.175Z,100607.81
2022-08-23T23:54:35.614Z,100603.72
2022-08-23T23:57:05.437Z,100604.16
2022-08-23T23:59:34.252Z,100607.22
